createdAt,value
2023-03-17T00:00:50.224Z,7.00
2023-03-17T00:03:29.732Z,7.03
2023-03-17T00:06:00.139Z,7.07
2023-03-17T00:08:33.374Z,7.00
2023-03-17T00:11:01.538Z,6.76
2023-03-17T00:13:31.089Z,6.71
2023-03-17T00:16:07.552Z,6.71
2023-03-17T00:18:35.572Z,7.42
2023-03-17T00:21:02.853Z,7.54
2023-03-17T00:23:30.619Z,7.53
2023-03-17T00:25:58.156Z,7.54
2023-03-17T00:28:27.950Z,7.34
2023-03-17T00:31:00.843Z,7.15
2023-03-17T00:33:33.129Z,7.22
2023-03-17T00:36:01.571Z,7.27
2023-03-17T00:38:30.398Z,6.91
2023-03-17T00:40:58.749Z,6.94
2023-03-17T00:43:26.279Z,6.86
2023-03-17T00:45:54.977Z,6.93
2023-03-17T00:48:22.519Z,6.97
2023-03-17T00:50:51.634Z,7.21
2023-03-17T00:53:23.841Z,7.09
2023-03-17T00:55:51.298Z,7.03
2023-03-17T00:58:28.694Z,7.18
2023-03-17T01:00:58.927Z,7.25
2023-03-17T01:03:27.928Z,7.66
2023-03-17T01:06:00.464Z,7.79
2023-03-17T01:08:30.226Z,7.90
2023-03-17T01:10:59.498Z,7.73
2023-03-17T01:13:27.579Z,7.60
2023-03-17T01:15:59.336Z,7.75
2023-03-17T01:18:27.182Z,7.84
2023-03-17T01:20:54.577Z,7.74
2023-03-17T01:23:22.136Z,7.72
2023-03-17T01:25:50.124Z,7.69
2023-03-17T01:28:20.858Z,7.73
2023-03-17T01:30:49.249Z,7.72
2023-03-17T01:33:18.132Z,7.73
2023-03-17T01:35:48.265Z,7.76
2023-03-17T01:38:16.806Z,7.79
2023-03-17T01:40:51.903Z,8.15
2023-03-17T01:43:31.278Z,7.94
2023-03-17T01:46:47.644Z,8.44
2023-03-17T01:49:37.514Z,8.70
2023-03-17T01:52:20.713Z,8.46
2023-03-17T01:55:08.922Z,8.33
2023-03-17T01:57:50.793Z,8.24
2023-03-17T02:00:26.246Z,8.21
2023-03-17T02:02:57.222Z,8.24
2023-03-17T02:05:30.978Z,8.69
2023-03-17T02:08:01.088Z,8.85
2023-03-17T02:10:30.639Z,8.73
2023-03-17T02:13:03.920Z,8.69
2023-03-17T02:15:51.185Z,8.67
2023-03-17T02:18:22.578Z,8.48
2023-03-17T02:20:49.622Z,8.43
2023-03-17T02:23:22.898Z,8.38
2023-03-17T02:25:53.091Z,8.37
2023-03-17T02:28:28.411Z,8.23
2023-03-17T02:30:55.598Z,8.04
2023-03-17T02:33:23.192Z,7.74
2023-03-17T02:35:54.177Z,7.98
2023-03-17T02:38:21.800Z,7.92
2023-03-17T02:40:49.165Z,7.82
2023-03-17T02:43:16.739Z,7.69
2023-03-17T02:45:44.129Z,7.50
2023-03-17T02:48:13.961Z,7.37
2023-03-17T02:50:41.422Z,7.58
2023-03-17T02:53:09.263Z,8.13
2023-03-17T02:55:36.760Z,8.14
2023-03-17T02:58:04.317Z,8.06
2023-03-17T03:00:32.046Z,7.92
2023-03-17T03:02:59.476Z,8.06
2023-03-17T03:05:27.069Z,8.06
2023-03-17T03:07:55.017Z,8.21
2023-03-17T03:10:22.193Z,8.69
2023-03-17T03:12:50.511Z,8.54
2023-03-17T03:15:17.917Z,7.92
2023-03-17T03:17:45.470Z,7.91
2023-03-17T03:20:13.305Z,7.90
2023-03-17T03:22:41.139Z,7.86
2023-03-17T03:25:08.711Z,8.07
2023-03-17T03:27:36.171Z,7.88
2023-03-17T03:30:07.441Z,7.78
2023-03-17T03:32:34.804Z,7.74
2023-03-17T03:35:02.025Z,7.58
2023-03-17T03:37:29.105Z,7.78
2023-03-17T03:39:56.263Z,7.80
2023-03-17T03:42:23.504Z,7.79
2023-03-17T03:44:50.670Z,7.38
2023-03-17T03:47:18.009Z,7.34
2023-03-17T03:49:45.596Z,7.18
2023-03-17T03:52:12.818Z,7.12
2023-03-17T03:54:40.058Z,7.23
2023-03-17T03:57:07.463Z,7.13
2023-03-17T03:59:34.715Z,6.92
2023-03-17T04:02:01.903Z,7.01
2023-03-17T04:04:29.642Z,6.81
2023-03-17T04:06:56.793Z,6.90
2023-03-17T04:09:24.072Z,6.66
2023-03-17T04:11:51.954Z,6.36
2023-03-17T04:14:19.490Z,6.37
2023-03-17T04:16:46.750Z,6.66
2023-03-17T04:19:14.085Z,7.03
2023-03-17T04:21:42.212Z,6.92
2023-03-17T04:24:09.771Z,7.03
2023-03-17T04:26:37.162Z,6.74
2023-03-17T04:29:04.562Z,6.66
2023-03-17T04:31:32.166Z,6.60
2023-03-17T04:34:00.624Z,6.52
2023-03-17T04:36:28.441Z,6.40
2023-03-17T04:38:55.717Z,6.37
2023-03-17T04:41:22.941Z,6.58
2023-03-17T04:43:50.253Z,6.75
2023-03-17T04:46:17.490Z,6.66
2023-03-17T04:48:46.879Z,6.10
2023-03-17T04:51:14.023Z,6.06
2023-03-17T04:53:41.389Z,6.41
2023-03-17T04:56:08.891Z,6.53
2023-03-17T04:58:36.638Z,6.64
2023-03-17T05:01:08.257Z,6.90
2023-03-17T05:03:35.994Z,6.79
2023-03-17T05:06:05.010Z,6.83
2023-03-17T05:08:32.242Z,6.46
2023-03-17T05:10:59.448Z,6.14
2023-03-17T05:13:27.386Z,5.77
2023-03-17T05:15:56.238Z,5.44
2023-03-17T05:18:25.973Z,5.60
2023-03-17T05:20:53.902Z,5.61
2023-03-17T05:23:22.327Z,5.82
2023-03-17T05:25:49.866Z,5.74
2023-03-17T05:28:18.247Z,5.58
2023-03-17T05:30:46.793Z,5.62
2023-03-17T05:33:16.329Z,6.11
2023-03-17T05:35:43.943Z,6.03
2023-03-17T05:38:14.288Z,5.81
2023-03-17T05:40:42.688Z,5.76
2023-03-17T05:43:10.381Z,5.97
2023-03-17T05:45:37.679Z,5.96
2023-03-17T05:48:05.212Z,6.29
2023-03-17T05:50:32.834Z,6.59
2023-03-17T05:53:00.951Z,6.82
2023-03-17T05:55:28.147Z,6.92
2023-03-17T05:57:55.489Z,6.90
2023-03-17T06:00:23.171Z,6.56
2023-03-17T06:02:50.452Z,6.85
2023-03-17T06:05:18.001Z,7.04
2023-03-17T06:07:53.890Z,7.22
2023-03-17T06:10:24.956Z,7.20
2023-03-17T06:12:52.748Z,7.16
2023-03-17T06:15:21.297Z,7.51
2023-03-17T06:17:48.631Z,7.99
2023-03-17T06:20:18.725Z,8.25
2023-03-17T06:23:02.319Z,7.96
2023-03-17T06:25:31.167Z,8.02
2023-03-17T06:27:58.523Z,8.20
2023-03-17T06:30:25.802Z,8.41
2023-03-17T06:32:53.056Z,8.58
2023-03-17T06:35:20.447Z,9.04
2023-03-17T06:37:47.898Z,8.74
2023-03-17T06:40:16.182Z,8.66
2023-03-17T06:42:43.615Z,8.80
2023-03-17T06:45:12.079Z,9.01
2023-03-17T06:47:39.750Z,8.94
2023-03-17T06:50:10.038Z,8.87
2023-03-17T06:52:38.974Z,9.05
2023-03-17T06:55:08.615Z,9.37
2023-03-17T06:57:37.332Z,9.36
2023-03-17T07:00:07.468Z,9.33
2023-03-17T07:02:35.001Z,9.47
2023-03-17T07:05:03.822Z,10.01
2023-03-17T07:07:33.864Z,10.20
2023-03-17T07:10:02.182Z,10.45
2023-03-17T07:12:29.361Z,10.64
2023-03-17T07:14:58.117Z,11.43
2023-03-17T07:17:25.581Z,12.83
2023-03-17T07:19:52.845Z,15.15
2023-03-17T07:22:20.473Z,17.20
2023-03-17T07:24:49.029Z,18.89
2023-03-17T07:27:17.030Z,19.57
2023-03-17T07:29:44.284Z,21.02
2023-03-17T07:32:11.860Z,21.01
2023-03-17T07:34:39.964Z,20.72
2023-03-17T07:37:07.873Z,20.02
2023-03-17T07:39:35.341Z,19.27
2023-03-17T07:42:09.965Z,17.95
2023-03-17T07:44:39.741Z,17.97
2023-03-17T07:47:08.448Z,18.43
2023-03-17T07:49:41.711Z,19.07
2023-03-17T07:52:12.614Z,19.52
2023-03-17T07:54:43.004Z,19.82
2023-03-17T07:57:11.915Z,20.13
2023-03-17T07:59:40.031Z,19.81
2023-03-17T08:02:10.805Z,20.36
2023-03-17T08:04:38.533Z,20.82
2023-03-17T08:07:06.300Z,21.02
2023-03-17T08:09:33.893Z,22.67
2023-03-17T08:12:01.567Z,22.03
2023-03-17T08:14:29.207Z,23.58
2023-03-17T08:16:56.643Z,25.41
2023-03-17T08:19:24.433Z,26.55
2023-03-17T08:21:51.650Z,25.38
2023-03-17T08:24:20.749Z,25.79
2023-03-17T08:26:49.540Z,26.42
2023-03-17T08:29:16.774Z,26.25
2023-03-17T08:31:46.525Z,27.27
2023-03-17T08:34:14.134Z,27.82
2023-03-17T08:36:41.421Z,27.18
2023-03-17T08:39:10.474Z,27.12
2023-03-17T08:41:38.558Z,26.71
2023-03-17T08:44:08.276Z,27.49
2023-03-17T08:46:36.699Z,28.54
2023-03-17T08:49:04.495Z,27.81
2023-03-17T08:51:36.834Z,28.15
2023-03-17T08:54:06.736Z,29.08
2023-03-17T08:56:35.040Z,28.43
2023-03-17T08:59:02.698Z,28.56
2023-03-17T09:01:30.164Z,27.39
2023-03-17T09:03:57.569Z,27.60
2023-03-17T09:06:25.546Z,27.37
2023-03-17T09:08:57.815Z,28.33
2023-03-17T09:11:29.958Z,29.19
2023-03-17T09:13:57.420Z,29.34
2023-03-17T09:16:25.697Z,29.30
2023-03-17T09:18:53.652Z,29.63
2023-03-17T09:21:21.388Z,31.83
2023-03-17T09:23:48.687Z,34.06
2023-03-17T09:26:16.048Z,34.59
2023-03-17T09:28:43.661Z,35.13
2023-03-17T09:31:13.093Z,35.87
2023-03-17T09:33:41.674Z,37.21
2023-03-17T09:36:11.060Z,38.36
2023-03-17T09:38:39.273Z,38.48
2023-03-17T09:41:23.869Z,38.28
2023-03-17T09:44:19.850Z,39.26
2023-03-17T09:47:13.901Z,38.06
2023-03-17T09:49:55.267Z,37.87
2023-03-17T09:52:32.659Z,37.07
2023-03-17T09:55:03.567Z,36.60
2023-03-17T09:57:40.718Z,35.91
2023-03-17T10:00:23.076Z,36.82
2023-03-17T10:02:50.488Z,36.50
2023-03-17T10:05:26.066Z,36.16
2023-03-17T10:08:29.037Z,35.65
2023-03-17T10:11:51.304Z,34.93
2023-03-17T10:14:57.362Z,35.02
2023-03-17T10:17:39.765Z,37.62
2023-03-17T10:20:18.920Z,36.96
2023-03-17T10:22:58.046Z,36.83
2023-03-17T10:25:36.657Z,37.22
2023-03-17T10:28:35.833Z,36.90
2023-03-17T10:31:29.270Z,36.91
2023-03-17T10:34:12.189Z,37.52
2023-03-17T10:36:46.953Z,37.78
2023-03-17T10:39:23.827Z,38.36
2023-03-17T10:42:03.340Z,37.62
2023-03-17T10:44:56.294Z,38.79
2023-03-17T10:47:47.949Z,38.44
2023-03-17T10:50:33.916Z,37.73
2023-03-17T10:53:04.364Z,37.57
2023-03-17T10:55:49.836Z,36.66
2023-03-17T10:58:47.658Z,36.03
2023-03-17T11:01:47.494Z,34.55
2023-03-17T11:04:43.474Z,34.13
2023-03-17T11:07:35.606Z,33.53
2023-03-17T11:10:27.383Z,33.73
2023-03-17T11:13:02.784Z,33.55
2023-03-17T11:15:44.542Z,33.83
2023-03-17T11:18:32.853Z,32.89
2023-03-17T11:21:09.221Z,32.68
2023-03-17T11:23:42.466Z,33.04
2023-03-17T11:26:36.378Z,33.25
2023-03-17T11:29:31.283Z,33.12
2023-03-17T11:32:13.553Z,33.30
2023-03-17T11:35:01.484Z,33.90
2023-03-17T11:38:14.332Z,33.47
2023-03-17T11:41:31.400Z,33.60
2023-03-17T11:45:09.556Z,33.93
2023-03-17T11:48:28.158Z,33.77
2023-03-17T11:51:22.951Z,32.26
2023-03-17T11:54:09.707Z,34.73
2023-03-17T11:56:57.662Z,36.36
2023-03-17T11:59:52.021Z,36.75
2023-03-17T12:02:28.764Z,37.43
2023-03-17T12:05:09.824Z,37.57
2023-03-17T12:07:38.905Z,36.98
2023-03-17T12:10:36.405Z,37.36
2023-03-17T12:13:30.114Z,35.95
2023-03-17T12:16:17.510Z,35.22
2023-03-17T12:19:22.070Z,34.55
2023-03-17T12:21:54.348Z,33.84
2023-03-17T12:24:31.635Z,33.21
2023-03-17T12:27:40.039Z,32.72
2023-03-17T12:30:18.847Z,33.16
2023-03-17T12:32:58.445Z,34.00
2023-03-17T12:35:38.893Z,34.26
2023-03-17T12:38:40.459Z,34.28
2023-03-17T12:41:56.968Z,34.27
2023-03-17T12:44:58.613Z,32.83
2023-03-17T12:47:57.947Z,32.80
2023-03-17T12:51:22.711Z,32.71
2023-03-17T12:53:51.862Z,32.25
2023-03-17T12:56:34.730Z,32.45
2023-03-17T12:59:09.877Z,32.44
2023-03-17T13:01:54.507Z,33.30
2023-03-17T13:04:37.974Z,33.42
2023-03-17T13:07:37.927Z,33.47
2023-03-17T13:10:48.559Z,33.21
2023-03-17T13:13:41.597Z,31.98
2023-03-17T13:16:34.010Z,32.77
2023-03-17T13:19:26.792Z,32.45
2023-03-17T13:22:03.366Z,32.42
2023-03-17T13:24:53.314Z,32.52
2023-03-17T13:27:32.809Z,32.28
2023-03-17T13:30:25.146Z,31.97
2023-03-17T13:33:04.223Z,31.80
2023-03-17T13:35:46.321Z,31.31
2023-03-17T13:38:34.894Z,30.74
2023-03-17T13:41:38.564Z,30.63
2023-03-17T13:44:58.191Z,30.87
2023-03-17T13:47:42.398Z,31.21
2023-03-17T13:50:22.696Z,31.90
2023-03-17T13:53:13.541Z,32.76
2023-03-17T13:56:23.390Z,33.36
2023-03-17T13:59:02.843Z,33.59
2023-03-17T14:01:58.717Z,33.32
2023-03-17T14:04:52.828Z,33.46
2023-03-17T14:07:27.464Z,32.77
2023-03-17T14:10:04.925Z,32.61
2023-03-17T14:13:12.599Z,31.80
2023-03-17T14:16:04.974Z,31.17
2023-03-17T14:19:08.891Z,30.58
2023-03-17T14:21:36.541Z,30.54
2023-03-17T14:24:32.149Z,29.93
2023-03-17T14:27:09.153Z,29.70
2023-03-17T14:29:38.152Z,29.14
2023-03-17T14:32:16.944Z,28.95
2023-03-17T14:34:48.820Z,29.14
2023-03-17T14:37:16.548Z,28.69
2023-03-17T14:39:57.791Z,28.87
2023-03-17T14:42:31.792Z,28.97
2023-03-17T14:45:08.498Z,29.23
2023-03-17T14:47:45.230Z,29.48
2023-03-17T14:50:33.400Z,29.12
2023-03-17T14:53:01.968Z,28.96
2023-03-17T14:55:43.073Z,28.73
2023-03-17T14:58:47.772Z,28.66
2023-03-17T15:01:35.312Z,28.44
2023-03-17T15:04:30.516Z,28.30
2023-03-17T15:07:07.665Z,28.38
2023-03-17T15:09:41.701Z,28.44
2023-03-17T15:12:30.981Z,28.28
2023-03-17T15:15:06.459Z,28.22
2023-03-17T15:17:37.191Z,28.43
2023-03-17T15:20:18.055Z,28.09
2023-03-17T15:23:03.469Z,27.96
2023-03-17T15:25:55.778Z,27.84
2023-03-17T15:28:49.459Z,27.88
2023-03-17T15:31:32.281Z,27.99
2023-03-17T15:34:02.203Z,27.93
2023-03-17T15:36:33.078Z,27.69
2023-03-17T15:39:03.485Z,27.39
2023-03-17T15:41:31.257Z,27.46
2023-03-17T15:43:58.694Z,27.32
2023-03-17T15:46:31.535Z,26.76
2023-03-17T15:49:00.352Z,26.79
2023-03-17T15:51:27.997Z,26.69
2023-03-17T15:53:55.392Z,26.38
2023-03-17T15:56:22.963Z,26.22
2023-03-17T15:58:54.951Z,26.40
2023-03-17T16:01:27.632Z,26.33
2023-03-17T16:03:55.684Z,26.32
2023-03-17T16:06:24.512Z,26.29
2023-03-17T16:08:51.995Z,26.09
2023-03-17T16:11:28.305Z,26.13
2023-03-17T16:13:59.703Z,25.99
2023-03-17T16:16:43.645Z,25.70
2023-03-17T16:19:21.642Z,25.49
2023-03-17T16:21:49.543Z,25.46
2023-03-17T16:24:24.429Z,25.51
2023-03-17T16:26:53.054Z,25.34
2023-03-17T16:29:21.848Z,25.33
2023-03-17T16:31:51.575Z,25.02
2023-03-17T16:34:24.689Z,24.67
2023-03-17T16:36:52.007Z,24.61
2023-03-17T16:39:24.595Z,24.48
2023-03-17T16:41:53.531Z,24.43
2023-03-17T16:44:22.179Z,24.23
2023-03-17T16:46:49.676Z,23.89
2023-03-17T16:49:22.526Z,23.55
2023-03-17T16:51:50.738Z,23.32
2023-03-17T16:54:18.106Z,22.95
2023-03-17T16:56:45.719Z,23.03
2023-03-17T16:59:21.737Z,22.79
2023-03-17T17:01:49.372Z,22.61
2023-03-17T17:04:16.648Z,22.29
2023-03-17T17:06:44.079Z,21.93
2023-03-17T17:09:11.318Z,21.95
2023-03-17T17:11:38.728Z,21.82
2023-03-17T17:14:06.062Z,21.68
2023-03-17T17:16:42.074Z,21.73
2023-03-17T17:19:17.593Z,22.05
2023-03-17T17:21:45.771Z,21.75
2023-03-17T17:24:14.655Z,21.54
2023-03-17T17:26:42.117Z,21.44
2023-03-17T17:29:09.490Z,21.04
2023-03-17T17:31:36.842Z,20.70
2023-03-17T17:34:04.415Z,20.76
2023-03-17T17:36:31.853Z,20.84
2023-03-17T17:38:59.201Z,20.99
2023-03-17T17:41:26.621Z,20.59
2023-03-17T17:43:54.686Z,20.22
2023-03-17T17:46:23.428Z,20.04
2023-03-17T17:48:50.752Z,19.86
2023-03-17T17:51:18.219Z,19.82
2023-03-17T17:53:45.656Z,19.71
2023-03-17T17:56:18.221Z,19.52
2023-03-17T17:58:46.543Z,19.39
2023-03-17T18:01:19.657Z,19.48
2023-03-17T18:03:47.441Z,19.39
2023-03-17T18:06:15.746Z,19.08
2023-03-17T18:08:43.539Z,19.24
2023-03-17T18:11:11.079Z,19.07
2023-03-17T18:13:39.083Z,19.17
2023-03-17T18:16:12.239Z,18.92
2023-03-17T18:18:42.733Z,18.99
2023-03-17T18:21:10.327Z,18.71
2023-03-17T18:23:38.991Z,18.59
2023-03-17T18:26:14.833Z,18.49
2023-03-17T18:28:50.309Z,18.30
2023-03-17T18:31:37.142Z,18.45
2023-03-17T18:34:14.555Z,18.53
2023-03-17T18:36:42.070Z,18.40
2023-03-17T18:39:09.403Z,18.46
2023-03-17T18:41:37.386Z,18.31
2023-03-17T18:44:04.905Z,18.37
2023-03-17T18:46:33.006Z,18.27
2023-03-17T18:49:00.372Z,17.94
2023-03-17T18:51:27.698Z,17.88
2023-03-17T18:53:56.385Z,17.83
2023-03-17T18:56:26.552Z,17.76
2023-03-17T18:58:54.561Z,17.73
2023-03-17T19:01:22.831Z,17.67
2023-03-17T19:03:50.870Z,17.36
2023-03-17T19:06:24.152Z,17.65
2023-03-17T19:08:51.803Z,17.54
2023-03-17T19:11:26.829Z,17.44
2023-03-17T19:13:54.393Z,17.22
2023-03-17T19:16:21.730Z,17.11
2023-03-17T19:18:49.196Z,17.13
2023-03-17T19:21:16.648Z,17.14
2023-03-17T19:23:44.915Z,17.10
2023-03-17T19:26:12.213Z,17.24
2023-03-17T19:28:39.841Z,17.15
2023-03-17T19:31:07.622Z,17.14
2023-03-17T19:33:35.470Z,16.91
2023-03-17T19:36:12.860Z,16.74
2023-03-17T19:38:41.122Z,16.72
2023-03-17T19:41:08.904Z,16.71
2023-03-17T19:43:41.248Z,16.85
2023-03-17T19:46:12.435Z,16.93
2023-03-17T19:48:40.692Z,16.82
2023-03-17T19:51:09.331Z,16.81
2023-03-17T19:53:37.427Z,16.59
2023-03-17T19:56:05.341Z,16.38
2023-03-17T19:58:32.680Z,16.24
2023-03-17T20:00:59.997Z,16.39
2023-03-17T20:03:28.395Z,16.37
2023-03-17T20:05:55.952Z,16.21
2023-03-17T20:08:24.667Z,16.26
2023-03-17T20:10:54.089Z,16.19
2023-03-17T20:13:22.551Z,16.10
2023-03-17T20:15:51.617Z,16.03
2023-03-17T20:18:20.206Z,15.76
2023-03-17T20:20:57.337Z,15.61
2023-03-17T20:23:26.098Z,15.52
2023-03-17T20:25:53.996Z,15.40
2023-03-17T20:28:22.199Z,15.59
2023-03-17T20:30:50.254Z,15.92
2023-03-17T20:33:17.995Z,15.92
2023-03-17T20:35:47.390Z,15.62
2023-03-17T20:38:15.764Z,15.72
2023-03-17T20:40:43.608Z,15.85
2023-03-17T20:43:11.195Z,15.87
2023-03-17T20:45:38.738Z,15.72
2023-03-17T20:48:09.226Z,15.51
2023-03-17T20:50:38.608Z,14.85
2023-03-17T20:53:07.366Z,14.72
2023-03-17T20:55:36.418Z,15.13
2023-03-17T20:58:04.054Z,15.27
2023-03-17T21:00:32.819Z,15.64
2023-03-17T21:03:00.465Z,15.67
2023-03-17T21:05:28.726Z,15.46
2023-03-17T21:07:56.650Z,15.44
2023-03-17T21:10:24.424Z,15.18
2023-03-17T21:12:51.636Z,15.08
2023-03-17T21:15:22.838Z,14.68
2023-03-17T21:17:50.271Z,14.83
2023-03-17T21:20:17.655Z,15.40
2023-03-17T21:22:46.034Z,15.40
2023-03-17T21:25:14.878Z,15.44
2023-03-17T21:27:42.712Z,15.47
2023-03-17T21:30:14.362Z,15.40
2023-03-17T21:32:42.202Z,15.23
2023-03-17T21:35:11.253Z,15.21
2023-03-17T21:37:38.510Z,15.28
2023-03-17T21:40:06.922Z,14.95
2023-03-17T21:42:35.101Z,15.12
2023-03-17T21:45:02.605Z,15.12
2023-03-17T21:47:30.178Z,15.09
2023-03-17T21:50:01.541Z,15.15
2023-03-17T21:52:28.810Z,15.12
2023-03-17T21:54:56.056Z,15.13
2023-03-17T21:57:25.632Z,15.22
2023-03-17T21:59:52.909Z,15.17
2023-03-17T22:02:21.072Z,14.68
2023-03-17T22:04:49.598Z,14.39
2023-03-17T22:07:17.990Z,14.38
2023-03-17T22:09:45.588Z,14.59
2023-03-17T22:12:14.006Z,14.43
2023-03-17T22:14:43.426Z,14.40
2023-03-17T22:17:17.989Z,14.54
2023-03-17T22:19:53.046Z,14.28
2023-03-17T22:22:22.036Z,14.32
2023-03-17T22:24:50.600Z,14.38
2023-03-17T22:27:19.028Z,14.48
2023-03-17T22:29:46.593Z,14.66
2023-03-17T22:32:14.520Z,14.52
2023-03-17T22:34:42.588Z,14.38
2023-03-17T22:37:09.908Z,14.42
2023-03-17T22:39:37.149Z,14.36
2023-03-17T22:42:04.796Z,14.19
2023-03-17T22:47:54.304Z,14.13
2023-03-17T22:50:23.133Z,14.14
2023-03-17T22:52:51.604Z,14.14
2023-03-17T22:55:19.016Z,14.14
2023-03-17T22:57:46.758Z,14.18
2023-03-17T23:00:17.628Z,14.20
2023-03-17T23:02:49.028Z,14.17
2023-03-17T23:05:16.730Z,14.30
2023-03-17T23:07:51.877Z,14.07
2023-03-17T23:10:23.520Z,14.00
2023-03-17T23:12:52.389Z,13.77
2023-03-17T23:15:21.028Z,13.93
2023-03-17T23:17:48.742Z,14.22
2023-03-17T23:20:17.538Z,13.95
2023-03-17T23:22:44.918Z,13.35
2023-03-17T23:25:13.640Z,13.39
2023-03-17T23:27:41.351Z,13.51
2023-03-17T23:30:11.854Z,13.35
2023-03-17T23:32:41.776Z,13.06
2023-03-17T23:35:13.475Z,13.06
2023-03-17T23:37:41.457Z,12.75
2023-03-17T23:40:11.578Z,13.00
2023-03-17T23:42:38.785Z,12.92
2023-03-17T23:45:07.078Z,13.13
2023-03-17T23:47:34.364Z,13.21
2023-03-17T23:50:02.170Z,13.26
2023-03-17T23:52:30.623Z,13.11
2023-03-17T23:54:58.250Z,13.00
2023-03-17T23:57:26.012Z,12.83
2023-03-17T23:59:53.539Z,12.87
